sensor_id;sensor_type;location;lat;lon;timestamp;pressure;altitude;pressure_sealevel;temperature;humidity
19447;BME280;9862;49.462;11.054;2023-07-13T00:01:34;97826.22;;;23.94;100.00
19447;BME280;9862;49.462;11.054;2023-07-13T00:04:01;97814.22;;;23.95;100.00
19447;BME280;9862;49.462;11.054;2023-07-13T00:06:27;97820.56;;;24.04;100.00
19447;BME280;9862;49.462;11.054;2023-07-13T00:08:55;97817.94;;;23.85;100.00
19447;BME280;9862;49.462;11.054;2023-07-13T00:11:22;97809.09;;;23.93;100.00
19447;BME280;9862;49.462;11.054;2023-07-13T00:13:48;97790.06;;;23.93;100.00
19447;BME280;9862;49.462;11.054;2023-07-13T00:16:17;97795.19;;;23.95;100.00
19447;BME280;9862;49.462;11.054;2023-07-13T00:18:44;97798.22;;;23.93;100.00
19447;BME280;9862;49.462;11.054;2023-07-13T00:21:11;97794.38;;;23.94;100.00
19447;BME280;9862;49.462;11.054;2023-07-13T00:23:40;97789.16;;;23.84;100.00
19447;BME280;9862;49.462;11.054;2023-07-13T00:26:09;97788.53;;;23.87;100.00
19447;BME280;9862;49.462;11.054;2023-07-13T00:28:37;97787.53;;;23.97;100.00
19447;BME280;9862;49.462;11.054;2023-07-13T00:31:07;97794.50;;;24.17;100.00
19447;BME280;9862;49.462;11.054;2023-07-13T00:33:35;97787.31;;;24.21;100.00
19447;BME280;9862;49.462;11.054;2023-07-13T00:36:02;97797.50;;;24.29;100.00
19447;BME280;9862;49.462;11.054;2023-07-13T00:38:30;97804.25;;;24.18;100.00
19447;BME280;9862;49.462;11.054;2023-07-13T00:40:56;97804.66;;;24.11;100.00
19447;BME280;9862;49.462;11.054;2023-07-13T00:43:27;97805.16;;;23.99;100.00
19447;BME280;9862;49.462;11.054;2023-07-13T00:46:20;97809.59;;;23.95;100.00
19447;BME280;9862;49.462;11.054;2023-07-13T00:48:49;97815.22;;;23.99;100.00
19447;BME280;9862;49.462;11.054;2023-07-13T00:51:21;97820.97;;;23.97;100.00
19447;BME280;9862;49.462;11.054;2023-07-13T00:53:50;97827.91;;;24.17;100.00
19447;BME280;9862;49.462;11.054;2023-07-13T00:56:17;97834.66;;;24.20;100.00
19447;BME280;9862;49.462;11.054;2023-07-13T00:58:44;97840.91;;;24.20;100.00
19447;BME280;9862;49.462;11.054;2023-07-13T01:01:11;97835.16;;;24.08;100.00
19447;BME280;9862;49.462;11.054;2023-07-13T01:03:39;97829.44;;;24.10;100.00
19447;BME280;9862;49.462;11.054;2023-07-13T01:06:08;97826.63;;;24.15;100.00
19447;BME280;9862;49.462;11.054;2023-07-13T01:08:34;97824.19;;;23.99;100.00
19447;BME280;9862;49.462;11.054;2023-07-13T01:11:01;97812.13;;;24.06;100.00
19447;BME280;9862;49.462;11.054;2023-07-13T01:13:28;97819.53;;;24.00;100.00
19447;BME280;9862;49.462;11.054;2023-07-13T01:15:57;97814.03;;;24.05;100.00
19447;BME280;9862;49.462;11.054;2023-07-13T01:18:26;97816.13;;;24.22;100.00
19447;BME280;9862;49.462;11.054;2023-07-13T01:20:56;97807.69;;;24.37;100.00
19447;BME280;9862;49.462;11.054;2023-07-13T01:23:24;97817.88;;;24.45;100.00
19447;BME280;9862;49.462;11.054;2023-07-13T01:25:51;97816.75;;;24.46;100.00
19447;BME280;9862;49.462;11.054;2023-07-13T01:28:18;97819.56;;;24.41;100.00
19447;BME280;9862;49.462;11.054;2023-07-13T01:30:45;97828.75;;;24.32;100.00
19447;BME280;9862;49.462;11.054;2023-07-13T01:33:13;97819.56;;;24.41;100.00
19447;BME280;9862;49.462;11.054;2023-07-13T01:35:42;97819.16;;;24.48;100.00
19447;BME280;9862;49.462;11.054;2023-07-13T01:38:16;97818.88;;;24.49;100.00
19447;BME280;9862;49.462;11.054;2023-07-13T01:40:43;97821.69;;;24.17;100.00
19447;BME280;9862;49.462;11.054;2023-07-13T01:43:10;97820.53;;;23.90;100.00
19447;BME280;9862;49.462;11.054;2023-07-13T01:45:37;97814.88;;;23.73;100.00
19447;BME280;9862;49.462;11.054;2023-07-13T01:48:04;97809.41;;;23.59;100.00
19447;BME280;9862;49.462;11.054;2023-07-13T01:50:32;97803.19;;;23.59;100.00
19447;BME280;9862;49.462;11.054;2023-07-13T01:52:58;97807.59;;;23.55;100.00
19447;BME280;9862;49.462;11.054;2023-07-13T01:55:27;97810.16;;;23.65;100.00
19447;BME280;9862;49.462;11.054;2023-07-13T01:57:53;97819.44;;;23.45;100.00
19447;BME280;9862;49.462;11.054;2023-07-13T02:00:20;97813.50;;;23.24;100.00
19447;BME280;9862;49.462;11.054;2023-07-13T02:02:47;97822.91;;;23.13;100.00
19447;BME280;9862;49.462;11.054;2023-07-13T02:05:14;97831.44;;;22.88;100.00
19447;BME280;9862;49.462;11.054;2023-07-13T02:07:41;97827.63;;;22.89;100.00
19447;BME280;9862;49.462;11.054;2023-07-13T02:10:10;97834.16;;;22.88;100.00
19447;BME280;9862;49.462;11.054;2023-07-13T02:12:39;97826.69;;;22.74;100.00
19447;BME280;9862;49.462;11.054;2023-07-13T02:15:08;97825.22;;;22.63;100.00
19447;BME280;9862;49.462;11.054;2023-07-13T02:17:36;97820.91;;;22.62;100.00
19447;BME280;9862;49.462;11.054;2023-07-13T02:20:05;97834.25;;;22.59;100.00
19447;BME280;9862;49.462;11.054;2023-07-13T02:22:33;97824.34;;;22.49;100.00
19447;BME280;9862;49.462;11.054;2023-07-13T02:25:01;97829.19;;;22.28;100.00
19447;BME280;9862;49.462;11.054;2023-07-13T02:27:28;97829.66;;;22.11;100.00
19447;BME280;9862;49.462;11.054;2023-07-13T02:29:56;97829.19;;;21.99;100.00
19447;BME280;9862;49.462;11.054;2023-07-13T02:32:22;97828.66;;;22.02;100.00
19447;BME280;9862;49.462;11.054;2023-07-13T02:34:50;97835.38;;;22.05;100.00
19447;BME280;9862;49.462;11.054;2023-07-13T02:37:18;97831.03;;;22.09;100.00
19447;BME280;9862;49.462;11.054;2023-07-13T02:39:45;97838.06;;;22.10;100.00
19447;BME280;9862;49.462;11.054;2023-07-13T02:42:13;97835.88;;;22.12;100.00
19447;BME280;9862;49.462;11.054;2023-07-13T02:44:40;97841.09;;;22.03;100.00
19447;BME280;9862;49.462;11.054;2023-07-13T02:47:08;97840.84;;;22.28;100.00
19447;BME280;9862;49.462;11.054;2023-07-13T02:49:35;97849.91;;;22.43;100.00
19447;BME280;9862;49.462;11.054;2023-07-13T02:52:03;97846.59;;;22.46;100.00
19447;BME280;9862;49.462;11.054;2023-07-13T02:54:30;97838.72;;;22.68;100.00
19447;BME280;9862;49.462;11.054;2023-07-13T02:56:57;97847.25;;;22.80;100.00
19447;BME280;9862;49.462;11.054;2023-07-13T02:59:23;97856.94;;;22.87;100.00
19447;BME280;9862;49.462;11.054;2023-07-13T03:01:50;97853.44;;;22.62;100.00
19447;BME280;9862;49.462;11.054;2023-07-13T03:04:18;97853.19;;;22.40;100.00
19447;BME280;9862;49.462;11.054;2023-07-13T03:06:45;97862.78;;;22.32;100.00
19447;BME280;9862;49.462;11.054;2023-07-13T03:09:12;97859.66;;;22.44;100.00
19447;BME280;9862;49.462;11.054;2023-07-13T03:11:39;97872.91;;;22.21;100.00
19447;BME280;9862;49.462;11.054;2023-07-13T03:14:06;97869.78;;;22.09;100.00
19447;BME280;9862;49.462;11.054;2023-07-13T03:16:33;97869.25;;;22.07;100.00
19447;BME280;9862;49.462;11.054;2023-07-13T03:19:00;97869.91;;;22.23;100.00
19447;BME280;9862;49.462;11.054;2023-07-13T03:21:28;97871.41;;;22.34;100.00
19447;BME280;9862;49.462;11.054;2023-07-13T03:23:55;97874.28;;;22.19;100.00
19447;BME280;9862;49.462;11.054;2023-07-13T03:26:21;97885.50;;;22.12;100.00
19447;BME280;9862;49.462;11.054;2023-07-13T03:28:48;97897.88;;;22.18;100.00
19447;BME280;9862;49.462;11.054;2023-07-13T03:31:16;97887.91;;;22.38;100.00
19447;BME280;9862;49.462;11.054;2023-07-13T03:33:43;97900.69;;;22.08;100.00
19447;BME280;9862;49.462;11.054;2023-07-13T03:36:13;97903.53;;;21.93;100.00
19447;BME280;9862;49.462;11.054;2023-07-13T03:38:42;97908.38;;;21.96;100.00
19447;BME280;9862;49.462;11.054;2023-07-13T03:41:09;97902.72;;;21.92;100.00
19447;BME280;9862;49.462;11.054;2023-07-13T03:43:35;97910.97;;;22.06;100.00
19447;BME280;9862;49.462;11.054;2023-07-13T03:46:02;97907.72;;;22.09;100.00
19447;BME280;9862;49.462;11.054;2023-07-13T03:48:29;97909.19;;;21.96;100.00
19447;BME280;9862;49.462;11.054;2023-07-13T03:50:55;97915.59;;;21.77;100.00
19447;BME280;9862;49.462;11.054;2023-07-13T03:53:22;97911.06;;;21.67;100.00
19447;BME280;9862;49.462;11.054;2023-07-13T03:55:50;97919.88;;;21.49;100.00
19447;BME280;9862;49.462;11.054;2023-07-13T03:58:28;97915.25;;;21.49;100.00
19447;BME280;9862;49.462;11.054;2023-07-13T04:00:55;97917.59;;;21.61;100.00
19447;BME280;9862;49.462;11.054;2023-07-13T04:03:22;97927.53;;;21.70;100.00
19447;BME280;9862;49.462;11.054;2023-07-13T04:05:49;97922.63;;;21.78;100.00
19447;BME280;9862;49.462;11.054;2023-07-13T04:08:16;97934.84;;;21.75;100.00
19447;BME280;9862;49.462;11.054;2023-07-13T04:10:43;97941.09;;;21.70;100.00
19447;BME280;9862;49.462;11.054;2023-07-13T04:13:11;97946.88;;;21.59;100.00
19447;BME280;9862;49.462;11.054;2023-07-13T04:15:38;97950.59;;;21.68;100.00
19447;BME280;9862;49.462;11.054;2023-07-13T04:18:05;97945.81;;;21.55;100.00
19447;BME280;9862;49.462;11.054;2023-07-13T04:20:32;97945.91;;;21.79;100.00
19447;BME280;9862;49.462;11.054;2023-07-13T04:22:58;97931.75;;;21.87;100.00
19447;BME280;9862;49.462;11.054;2023-07-13T04:25:25;97938.03;;;21.82;100.00
19447;BME280;9862;49.462;11.054;2023-07-13T04:27:52;97942.44;;;22.07;100.00
19447;BME280;9862;49.462;11.054;2023-07-13T04:30:21;97940.38;;;21.94;100.00
19447;BME280;9862;49.462;11.054;2023-07-13T04:32:48;97939.75;;;22.02;100.00
19447;BME280;9862;49.462;11.054;2023-07-13T04:35:14;97949.13;;;21.81;100.00
19447;BME280;9862;49.462;11.054;2023-07-13T04:37:41;97950.78;;;21.82;100.00
19447;BME280;9862;49.462;11.054;2023-07-13T04:40:08;97957.03;;;21.77;100.00
19447;BME280;9862;49.462;11.054;2023-07-13T04:42:37;97964.75;;;21.94;100.00
19447;BME280;9862;49.462;11.054;2023-07-13T04:45:05;97953.63;;;22.30;100.00
19447;BME280;9862;49.462;11.054;2023-07-13T04:47:33;97953.13;;;22.75;100.00
19447;BME280;9862;49.462;11.054;2023-07-13T04:49:59;97950.00;;;23.11;95.87
19447;BME280;9862;49.462;11.054;2023-07-13T04:52:26;97959.59;;;22.79;96.01
19447;BME280;9862;49.462;11.054;2023-07-13T04:54:53;97955.19;;;22.36;98.67
19447;BME280;9862;49.462;11.054;2023-07-13T04:57:19;97959.69;;;22.21;100.00
19447;BME280;9862;49.462;11.054;2023-07-13T04:59:46;97960.00;;;22.15;100.00
19447;BME280;9862;49.462;11.054;2023-07-13T05:02:13;97967.75;;;22.26;100.00
19447;BME280;9862;49.462;11.054;2023-07-13T05:04:41;97959.25;;;22.04;100.00
19447;BME280;9862;49.462;11.054;2023-07-13T05:07:08;97964.28;;;21.87;100.00
19447;BME280;9862;49.462;11.054;2023-07-13T05:09:34;97968.38;;;21.79;100.00
19447;BME280;9862;49.462;11.054;2023-07-13T05:12:01;97975.34;;;21.56;100.00
19447;BME280;9862;49.462;11.054;2023-07-13T05:14:27;97974.28;;;21.52;100.00
19447;BME280;9862;49.462;11.054;2023-07-13T05:16:54;97978.69;;;21.38;100.00
19447;BME280;9862;49.462;11.054;2023-07-13T05:19:22;97986.31;;;21.26;100.00
19447;BME280;9862;49.462;11.054;2023-07-13T05:21:50;97977.75;;;21.03;100.00
19447;BME280;9862;49.462;11.054;2023-07-13T05:24:17;97983.38;;;21.17;100.00
19447;BME280;9862;49.462;11.054;2023-07-13T05:26:44;97981.19;;;21.29;100.00
19447;BME280;9862;49.462;11.054;2023-07-13T05:29:11;97989.53;;;21.38;100.00
19447;BME280;9862;49.462;11.054;2023-07-13T05:31:37;97982.44;;;21.42;100.00
19447;BME280;9862;49.462;11.054;2023-07-13T05:34:04;97985.66;;;21.54;100.00
19447;BME280;9862;49.462;11.054;2023-07-13T05:36:31;97981.38;;;21.43;100.00
19447;BME280;9862;49.462;11.054;2023-07-13T05:38:59;97987.28;;;21.50;100.00
19447;BME280;9862;49.462;11.054;2023-07-13T05:41:26;97989.69;;;21.52;100.00
19447;BME280;9862;49.462;11.054;2023-07-13T05:43:52;97990.53;;;21.52;100.00
19447;BME280;9862;49.462;11.054;2023-07-13T05:46:19;97988.31;;;21.59;100.00
19447;BME280;9862;49.462;11.054;2023-07-13T05:48:45;97999.13;;;21.64;100.00
19447;BME280;9862;49.462;11.054;2023-07-13T05:51:13;97994.25;;;21.61;100.00
19447;BME280;9862;49.462;11.054;2023-07-13T05:53:39;98000.97;;;21.69;100.00
19447;BME280;9862;49.462;11.054;2023-07-13T05:56:07;98000.16;;;21.74;100.00
19447;BME280;9862;49.462;11.054;2023-07-13T05:58:34;98006.31;;;21.79;100.00
19447;BME280;9862;49.462;11.054;2023-07-13T06:01:04;98010.91;;;21.84;100.00
19447;BME280;9862;49.462;11.054;2023-07-13T06:03:30;98008.19;;;21.84;100.00
19447;BME280;9862;49.462;11.054;2023-07-13T06:05:57;98010.97;;;21.74;99.33
19447;BME280;9862;49.462;11.054;2023-07-13T06:08:25;98007.19;;;21.69;100.00
19447;BME280;9862;49.462;11.054;2023-07-13T06:10:52;98003.91;;;21.78;100.00
19447;BME280;9862;49.462;11.054;2023-07-13T06:13:20;98006.09;;;21.76;99.90
19447;BME280;9862;49.462;11.054;2023-07-13T06:15:48;98012.16;;;21.57;100.00
19447;BME280;9862;49.462;11.054;2023-07-13T06:18:15;98033.41;;;21.35;100.00
19447;BME280;9862;49.462;11.054;2023-07-13T06:20:41;98022.31;;;21.31;100.00
19447;BME280;9862;49.462;11.054;2023-07-13T06:23:08;98016.38;;;21.29;100.00
19447;BME280;9862;49.462;11.054;2023-07-13T06:25:34;98022.53;;;21.40;100.00
19447;BME280;9862;49.462;11.054;2023-07-13T06:28:01;98023.00;;;21.57;100.00
19447;BME280;9862;49.462;11.054;2023-07-13T06:30:29;98024.53;;;21.68;100.00
19447;BME280;9862;49.462;11.054;2023-07-13T06:32:57;98019.91;;;21.74;100.00
19447;BME280;9862;49.462;11.054;2023-07-13T06:35:23;98016.34;;;21.79;100.00
19447;BME280;9862;49.462;11.054;2023-07-13T06:37:50;98028.00;;;21.79;100.00
19447;BME280;9862;49.462;11.054;2023-07-13T06:40:17;98023.38;;;21.80;100.00
19447;BME280;9862;49.462;11.054;2023-07-13T06:42:43;98026.66;;;21.82;100.00
19447;BME280;9862;49.462;11.054;2023-07-13T06:45:10;98023.06;;;21.86;100.00
19447;BME280;9862;49.462;11.054;2023-07-13T06:47:38;98037.44;;;21.87;100.00
19447;BME280;9862;49.462;11.054;2023-07-13T06:50:05;98039.56;;;21.90;100.00
19447;BME280;9862;49.462;11.054;2023-07-13T06:52:32;98042.09;;;21.81;100.00
19447;BME280;9862;49.462;11.054;2023-07-13T06:54:58;98044.19;;;21.89;100.00
19447;BME280;9862;49.462;11.054;2023-07-13T06:57:25;98038.38;;;22.06;99.48
19447;BME280;9862;49.462;11.054;2023-07-13T06:59:51;98042.41;;;22.14;98.53
19447;BME280;9862;49.462;11.054;2023-07-13T07:02:18;98041.31;;;22.15;98.37
19447;BME280;9862;49.462;11.054;2023-07-13T07:04:46;98050.25;;;22.15;100.00
19447;BME280;9862;49.462;11.054;2023-07-13T07:07:12;98051.81;;;22.26;98.25
19447;BME280;9862;49.462;11.054;2023-07-13T07:09:39;98059.72;;;22.18;97.05
19447;BME280;9862;49.462;11.054;2023-07-13T07:12:06;98068.19;;;22.11;96.68
19447;BME280;9862;49.462;11.054;2023-07-13T07:14:33;98060.63;;;22.03;95.77
19447;BME280;9862;49.462;11.054;2023-07-13T07:17:00;98069.88;;;21.97;96.46
19447;BME280;9862;49.462;11.054;2023-07-13T07:19:27;98067.47;;;21.90;96.10
19447;BME280;9862;49.462;11.054;2023-07-13T07:21:55;98061.81;;;21.87;97.64
19447;BME280;9862;49.462;11.054;2023-07-13T07:24:22;98071.03;;;21.86;97.75
19447;BME280;9862;49.462;11.054;2023-07-13T07:26:48;98063.88;;;22.00;97.55
19447;BME280;9862;49.462;11.054;2023-07-13T07:29:15;98072.00;;;22.10;96.37
19447;BME280;9862;49.462;11.054;2023-07-13T07:31:41;98071.44;;;22.13;96.80
19447;BME280;9862;49.462;11.054;2023-07-13T07:34:08;98075.41;;;22.26;95.76
19447;BME280;9862;49.462;11.054;2023-07-13T07:36:34;98069.66;;;22.33;96.76
19447;BME280;9862;49.462;11.054;2023-07-13T07:39:02;98079.47;;;22.57;94.70
19447;BME280;9862;49.462;11.054;2023-07-13T07:41:30;98077.22;;;22.65;94.12
19447;BME280;9862;49.462;11.054;2023-07-13T07:43:56;98085.47;;;22.54;93.56
19447;BME280;9862;49.462;11.054;2023-07-13T07:46:23;98081.38;;;22.57;93.72
19447;BME280;9862;49.462;11.054;2023-07-13T07:48:49;98080.22;;;22.63;89.37
19447;BME280;9862;49.462;11.054;2023-07-13T07:51:16;98080.00;;;22.60;91.07
19447;BME280;9862;49.462;11.054;2023-07-13T07:53:42;98088.56;;;22.43;92.19
19447;BME280;9862;49.462;11.054;2023-07-13T07:56:10;98086.84;;;22.52;92.83
19447;BME280;9862;49.462;11.054;2023-07-13T07:58:37;98089.56;;;22.52;92.38
19447;BME280;9862;49.462;11.054;2023-07-13T08:01:04;98097.63;;;22.62;87.96
19447;BME280;9862;49.462;11.054;2023-07-13T08:03:31;98099.41;;;22.72;85.80
19447;BME280;9862;49.462;11.054;2023-07-13T08:05:58;98098.81;;;22.80;87.97
19447;BME280;9862;49.462;11.054;2023-07-13T08:08:24;98096.41;;;22.73;84.30
19447;BME280;9862;49.462;11.054;2023-07-13T08:10:51;98086.25;;;22.89;85.42
19447;BME280;9862;49.462;11.054;2023-07-13T08:13:19;98094.84;;;22.96;84.23
19447;BME280;9862;49.462;11.054;2023-07-13T08:15:46;98096.50;;;22.97;85.05
19447;BME280;9862;49.462;11.054;2023-07-13T08:18:13;98093.69;;;23.07;85.45
19447;BME280;9862;49.462;11.054;2023-07-13T08:20:40;98092.56;;;23.32;81.34
19447;BME280;9862;49.462;11.054;2023-07-13T08:23:09;98095.28;;;23.32;74.23
19447;BME280;9862;49.462;11.054;2023-07-13T08:25:36;98099.25;;;23.16;72.81
19447;BME280;9862;49.462;11.054;2023-07-13T08:28:03;98104.31;;;23.28;73.17
19447;BME280;9862;49.462;11.054;2023-07-13T08:30:31;98103.91;;;23.39;69.90
19447;BME280;9862;49.462;11.054;2023-07-13T08:32:57;98105.34;;;23.32;63.86
19447;BME280;9862;49.462;11.054;2023-07-13T08:35:24;98109.84;;;23.41;60.53
19447;BME280;9862;49.462;11.054;2023-07-13T08:37:51;98116.19;;;23.32;59.48
19447;BME280;9862;49.462;11.054;2023-07-13T08:40:20;98100.19;;;23.30;61.45
19447;BME280;9862;49.462;11.054;2023-07-13T08:42:54;98098.81;;;23.33;58.96
19447;BME280;9862;49.462;11.054;2023-07-13T08:45:23;98097.88;;;23.42;58.23
19447;BME280;9862;49.462;11.054;2023-07-13T08:47:57;98106.22;;;23.27;60.46
19447;BME280;9862;49.462;11.054;2023-07-13T08:50:31;98119.25;;;23.25;63.14
19447;BME280;9862;49.462;11.054;2023-07-13T08:53:01;98109.44;;;23.29;63.90
19447;BME280;9862;49.462;11.054;2023-07-13T08:55:31;98118.16;;;23.50;63.58
19447;BME280;9862;49.462;11.054;2023-07-13T08:58:10;98113.94;;;23.63;62.54
19447;BME280;9862;49.462;11.054;2023-07-13T09:00:44;98121.91;;;23.78;58.80
19447;BME280;9862;49.462;11.054;2023-07-13T09:03:20;98119.03;;;23.69;58.73
19447;BME280;9862;49.462;11.054;2023-07-13T09:05:52;98122.50;;;23.75;57.98
19447;BME280;9862;49.462;11.054;2023-07-13T09:08:34;98117.28;;;23.79;58.89
19447;BME280;9862;49.462;11.054;2023-07-13T09:11:13;98120.16;;;23.87;60.40
19447;BME280;9862;49.462;11.054;2023-07-13T09:13:45;98124.19;;;23.90;60.34
19447;BME280;9862;49.462;11.054;2023-07-13T09:16:14;98130.94;;;23.74;59.10
19447;BME280;9862;49.462;11.054;2023-07-13T09:18:46;98128.44;;;23.53;58.48
19447;BME280;9862;49.462;11.054;2023-07-13T09:21:16;98121.00;;;23.64;56.88
19447;BME280;9862;49.462;11.054;2023-07-13T09:23:44;98134.66;;;23.59;57.63
19447;BME280;9862;49.462;11.054;2023-07-13T09:26:14;98120.59;;;23.52;57.48
19447;BME280;9862;49.462;11.054;2023-07-13T09:28:45;98137.50;;;23.43;57.06
19447;BME280;9862;49.462;11.054;2023-07-13T09:31:15;98144.44;;;23.60;56.73
19447;BME280;9862;49.462;11.054;2023-07-13T09:33:44;98131.06;;;23.63;55.77
19447;BME280;9862;49.462;11.054;2023-07-13T09:36:20;98127.78;;;23.66;56.12
19447;BME280;9862;49.462;11.054;2023-07-13T09:38:58;98132.13;;;23.67;51.69
19447;BME280;9862;49.462;11.054;2023-07-13T09:41:35;98124.97;;;23.72;52.82
19447;BME280;9862;49.462;11.054;2023-07-13T09:44:08;98131.69;;;23.79;51.56
19447;BME280;9862;49.462;11.054;2023-07-13T09:46:37;98123.06;;;23.72;50.83
19447;BME280;9862;49.462;11.054;2023-07-13T09:49:08;98113.94;;;23.63;50.79
19447;BME280;9862;49.462;11.054;2023-07-13T09:51:36;98124.78;;;23.87;51.08
19447;BME280;9862;49.462;11.054;2023-07-13T09:54:03;98118.31;;;24.02;50.05
19447;BME280;9862;49.462;11.054;2023-07-13T09:56:30;98114.50;;;24.21;50.38
19447;BME280;9862;49.462;11.054;2023-07-13T09:58:57;98115.19;;;24.32;49.71
19447;BME280;9862;49.462;11.054;2023-07-13T10:01:36;98125.47;;;24.35;49.60
19447;BME280;9862;49.462;11.054;2023-07-13T10:04:10;98118.25;;;24.44;49.14
19447;BME280;9862;49.462;11.054;2023-07-13T10:06:38;98128.09;;;24.40;49.05
19447;BME280;9862;49.462;11.054;2023-07-13T10:09:07;98117.22;;;24.03;48.53
19447;BME280;9862;49.462;11.054;2023-07-13T10:11:35;98110.59;;;24.09;49.05
19447;BME280;9862;49.462;11.054;2023-07-13T10:14:10;98126.63;;;24.10;48.72
19447;BME280;9862;49.462;11.054;2023-07-13T10:16:38;98135.09;;;24.27;49.18
19447;BME280;9862;49.462;11.054;2023-07-13T10:19:13;98130.03;;;24.40;48.66
19447;BME280;9862;49.462;11.054;2023-07-13T10:21:49;98114.06;;;24.52;48.55
19447;BME280;9862;49.462;11.054;2023-07-13T10:24:20;98141.84;;;24.30;48.96
19447;BME280;9862;49.462;11.054;2023-07-13T10:26:52;98128.38;;;24.20;49.19
19447;BME280;9862;49.462;11.054;2023-07-13T10:29:22;98132.50;;;23.98;49.65
19447;BME280;9862;49.462;11.054;2023-07-13T10:31:51;98131.03;;;23.87;49.80
19447;BME280;9862;49.462;11.054;2023-07-13T10:34:19;98123.69;;;23.88;50.16
19447;BME280;9862;49.462;11.054;2023-07-13T10:36:47;98135.22;;;24.17;50.63
19447;BME280;9862;49.462;11.054;2023-07-13T10:39:17;98139.72;;;24.27;50.20
19447;BME280;9862;49.462;11.054;2023-07-13T10:41:46;98129.28;;;24.53;48.96
19447;BME280;9862;49.462;11.054;2023-07-13T10:44:21;98132.66;;;24.64;49.13
19447;BME280;9862;49.462;11.054;2023-07-13T10:46:53;98119.97;;;24.73;47.97
19447;BME280;9862;49.462;11.054;2023-07-13T10:49:23;98136.38;;;24.68;47.78
19447;BME280;9862;49.462;11.054;2023-07-13T10:51:50;98124.78;;;24.62;47.66
19447;BME280;9862;49.462;11.054;2023-07-13T10:54:21;98126.84;;;24.84;48.33
19447;BME280;9862;49.462;11.054;2023-07-13T10:57:07;98123.28;;;25.02;47.53
19447;BME280;9862;49.462;11.054;2023-07-13T10:59:35;98128.44;;;25.18;47.26
19447;BME280;9862;49.462;11.054;2023-07-13T11:02:11;98114.63;;;25.28;46.77
19447;BME280;9862;49.462;11.054;2023-07-13T11:04:45;98116.03;;;25.25;48.29
19447;BME280;9862;49.462;11.054;2023-07-13T11:07:20;98119.38;;;24.90;48.55
19447;BME280;9862;49.462;11.054;2023-07-13T11:09:50;98117.16;;;24.78;49.24
19447;BME280;9862;49.462;11.054;2023-07-13T11:12:51;98120.16;;;24.63;48.47
19447;BME280;9862;49.462;11.054;2023-07-13T11:15:30;98123.31;;;24.51;47.82
19447;BME280;9862;49.462;11.054;2023-07-13T11:17:57;98114.59;;;24.68;48.13
19447;BME280;9862;49.462;11.054;2023-07-13T11:20:38;98120.34;;;24.66;48.48
19447;BME280;9862;49.462;11.054;2023-07-13T11:23:18;98112.81;;;24.77;48.81
19447;BME280;9862;49.462;11.054;2023-07-13T11:25:46;98113.94;;;24.76;48.31
19447;BME280;9862;49.462;11.054;2023-07-13T11:28:21;98108.47;;;24.76;47.82
19447;BME280;9862;49.462;11.054;2023-07-13T11:30:53;98097.81;;;24.93;48.00
19447;BME280;9862;49.462;11.054;2023-07-13T11:33:28;98092.63;;;25.10;48.22
19447;BME280;9862;49.462;11.054;2023-07-13T11:36:03;98100.22;;;25.41;48.03
19447;BME280;9862;49.462;11.054;2023-07-13T11:38:33;98093.44;;;25.52;47.23
19447;BME280;9862;49.462;11.054;2023-07-13T11:41:04;98098.56;;;25.54;47.25
19447;BME280;9862;49.462;11.054;2023-07-13T11:43:33;98087.78;;;25.62;46.69
19447;BME280;9862;49.462;11.054;2023-07-13T11:46:13;98088.97;;;25.56;46.50
19447;BME280;9862;49.462;11.054;2023-07-13T11:48:40;98083.38;;;25.39;47.50
19447;BME280;9862;49.462;11.054;2023-07-13T11:51:18;98089.28;;;25.55;47.82
19447;BME280;9862;49.462;11.054;2023-07-13T11:53:48;98088.16;;;25.69;46.96
19447;BME280;9862;49.462;11.054;2023-07-13T11:56:15;98095.75;;;25.73;46.19
19447;BME280;9862;49.462;11.054;2023-07-13T11:58:42;98094.75;;;25.55;47.48
19447;BME280;9862;49.462;11.054;2023-07-13T12:01:16;98098.88;;;25.52;48.59
19447;BME280;9862;49.462;11.054;2023-07-13T12:03:45;98108.69;;;25.26;48.13
19447;BME280;9862;49.462;11.054;2023-07-13T12:06:24;98118.41;;;24.99;49.28
19447;BME280;9862;49.462;11.054;2023-07-13T12:08:56;98105.06;;;24.84;50.31
19447;BME280;9862;49.462;11.054;2023-07-13T12:11:22;98112.63;;;24.87;50.25
19447;BME280;9862;49.462;11.054;2023-07-13T12:13:49;98107.66;;;25.08;49.30
19447;BME280;9862;49.462;11.054;2023-07-13T12:16:27;98105.75;;;25.22;48.80
19447;BME280;9862;49.462;11.054;2023-07-13T12:18:55;98105.34;;;25.43;48.91
19447;BME280;9862;49.462;11.054;2023-07-13T12:21:28;98105.44;;;25.51;48.87
19447;BME280;9862;49.462;11.054;2023-07-13T12:23:56;98100.69;;;25.57;48.86
19447;BME280;9862;49.462;11.054;2023-07-13T12:26:23;98095.84;;;25.67;48.38
19447;BME280;9862;49.462;11.054;2023-07-13T12:28:52;98091.09;;;25.87;48.90
19447;BME280;9862;49.462;11.054;2023-07-13T12:31:41;98093.22;;;25.90;48.51
19447;BME280;9862;49.462;11.054;2023-07-13T12:34:12;98089.13;;;26.01;48.75
19447;BME280;9862;49.462;11.054;2023-07-13T12:36:45;98094.75;;;26.05;47.13
19447;BME280;9862;49.462;11.054;2023-07-13T12:39:16;98104.59;;;25.92;47.83
19447;BME280;9862;49.462;11.054;2023-07-13T12:41:44;98098.97;;;25.88;48.06
19447;BME280;9862;49.462;11.054;2023-07-13T12:44:12;98103.03;;;25.77;48.12
19447;BME280;9862;49.462;11.054;2023-07-13T12:46:52;98106.97;;;25.44;48.97
19447;BME280;9862;49.462;11.054;2023-07-13T12:49:24;98094.47;;;25.29;49.17
19447;BME280;9862;49.462;11.054;2023-07-13T12:51:56;98100.72;;;25.43;49.02
19447;BME280;9862;49.462;11.054;2023-07-13T12:54:23;98097.91;;;25.48;48.86
19447;BME280;9862;49.462;11.054;2023-07-13T12:56:50;98088.69;;;25.58;48.34
19447;BME280;9862;49.462;11.054;2023-07-13T12:59:21;98096.13;;;25.66;48.42
19447;BME280;9862;49.462;11.054;2023-07-13T13:01:48;98092.53;;;25.71;47.53
19447;BME280;9862;49.462;11.054;2023-07-13T13:04:25;98088.38;;;25.87;48.62